Time;durP1;ratioP1;P1;durP2;ratioP2;P2;SDS_P1;SDS_P2;PMS_P1;PMS_P2;Temp;Humidity;BMP_temperature;BMP_pressure;BME280_temperature;BME280_humidity;BME280_pressure;Samples;Min_cycle;Max_cycle;Signal;HPM_P1;HPM_P2
2023/04/15 00:01:18;;;;;;;9.70;3.53;;;;;;;;;;4931795;29;20527;-64
2023/04/15 00:03:51;;;;;;;;;;;;;;;;;;4944360;29;20056;-64
2023/04/15 00:06:22;;;;;;;5.55;3.00;;;;;;;;;;4934889;29;20348;-64
2023/04/15 00:08:53;;;;;;;7.60;3.30;;;;;;;;;;4963970;28;20068;-65
2023/04/15 00:11:23;;;;;;;5.45;3.25;;;;;;;;;;5011455;28;20053;-65
2023/04/15 00:13:53;;;;;;;9.00;3.47;;;;;;;;;;4976938;28;20057;-65
2023/04/15 00:16:23;;;;;;;11.45;3.65;;;;;;;;;;4937516;28;20526;-65
2023/04/15 00:18:53;;;;;;;6.68;3.85;;;;;;;;;;4986243;28;20213;-65
2023/04/15 00:21:23;;;;;;;9.20;3.70;;;;;;;;;;4989202;28;20084;-65
2023/04/15 00:23:54;;;;;;;8.82;3.65;;;;;;;;;;4989212;28;20510;-65
2023/04/15 00:26:24;;;;;;;7.10;3.60;;;;;;;;;;4973336;28;20546;-65
2023/04/15 00:28:54;;;;;;;6.03;3.83;;;;;;;;;;4924692;28;20085;-65
2023/04/15 00:31:24;;;;;;;6.35;3.85;;;;;;;;;;4973588;28;20034;-66
2023/04/15 00:33:55;;;;;;;7.80;4.28;;;;;;;;;;4949038;29;20059;-65
2023/04/15 00:36:25;;;;;;;8.63;3.53;;;;;;;;;;4923202;29;20043;-65
2023/04/15 00:38:56;;;;;;;7.45;4.13;;;;;;;;;;4924497;29;20428;-65
2023/04/15 00:41:26;;;;;;;9.57;3.83;;;;;;;;;;4908770;29;20055;-65
2023/04/15 00:43:56;;;;;;;6.95;3.83;;;;;;;;;;4919430;29;20052;-65
2023/04/15 00:46:28;;;;;;;8.60;3.63;;;;;;;;;;4893133;29;20053;-65
2023/04/15 00:48:58;;;;;;;8.45;3.78;;;;;;;;;;4893413;29;20532;-64
2023/04/15 00:51:30;;;;;;;8.15;3.85;;;;;;;;;;4826355;29;20058;-65
2023/04/15 00:54:00;;;;;;;9.02;4.35;;;;;;;;;;4827686;29;20057;-64
2023/04/15 00:56:34;;;;;;;8.30;3.50;;;;;;;;;;4857130;29;20391;-65
2023/04/15 00:59:06;;;;;;;7.00;3.60;;;;;;;;;;4874625;29;20057;-65
2023/04/15 01:01:37;;;;;;;9.35;4.10;;;;;;;;;;4840674;29;20510;-65
2023/04/15 01:04:10;;;;;;;11.43;3.63;;;;;;;;;;4874268;29;20053;-65
2023/04/15 01:06:40;;;;;;;6.13;3.60;;;;;;;;;;4843722;29;20057;-66
2023/04/15 01:09:11;;;;;;;7.88;4.15;;;;;;;;;;4874245;29;20057;-65
2023/04/15 01:11:41;;;;;;;6.78;3.90;;;;;;;;;;4865658;29;20057;-65
2023/04/15 01:14:11;;;;;;;6.90;3.83;;;;;;;;;;4874503;29;20061;-65
2023/04/15 01:16:41;;;;;;;9.00;4.32;;;;;;;;;;4869443;29;20441;-65
2023/04/15 01:19:12;;;;;;;6.15;3.63;;;;;;;;;;4858557;29;20058;-65
2023/04/15 01:21:42;;;;;;;6.35;4.05;;;;;;;;;;4838073;29;20049;-66
2023/04/15 01:24:15;;;;;;;8.15;3.70;;;;;;;;;;4887266;29;20052;-65
2023/04/15 01:26:46;;;;;;;7.90;3.60;;;;;;;;;;4896373;29;20064;-63
2023/04/15 01:29:16;;;;;;;6.85;3.38;;;;;;;;;;4896131;29;20075;-63
2023/04/15 01:31:51;;;;;;;6.18;3.58;;;;;;;;;;4895055;29;20060;-64
2023/04/15 01:34:22;;;;;;;7.50;3.40;;;;;;;;;;4831544;29;20061;-64
2023/04/15 01:36:54;;;;;;;7.85;3.40;;;;;;;;;;4861799;29;20509;-63
2023/04/15 01:39:24;;;;;;;12.05;3.45;;;;;;;;;;4809659;29;20066;-65
2023/04/15 01:41:57;;;;;;;6.90;3.65;;;;;;;;;;4854789;29;20557;-63
2023/04/15 01:44:27;;;;;;;8.55;3.38;;;;;;;;;;4840294;29;20058;-64
2023/04/15 01:46:58;;;;;;;7.20;3.70;;;;;;;;;;4855741;29;20115;-63
2023/04/15 01:49:28;;;;;;;6.18;3.50;;;;;;;;;;4860255;29;20056;-64
2023/04/15 01:51:58;;;;;;;8.20;3.58;;;;;;;;;;4877225;29;20061;-63
2023/04/15 01:54:28;;;;;;;9.52;4.00;;;;;;;;;;4887074;29;20060;-63
2023/04/15 01:56:58;;;;;;;11.23;3.88;;;;;;;;;;4881242;29;20545;-63
2023/04/15 01:59:31;;;;;;;6.57;3.85;;;;;;;;;;4876552;29;20057;-63
2023/04/15 02:02:01;;;;;;;6.85;3.88;;;;;;;;;;4887132;29;20049;-63
2023/04/15 02:04:31;;;;;;;6.88;3.40;;;;;;;;;;4895583;29;20060;-63
2023/04/15 02:07:01;;;;;;;12.48;4.00;;;;;;;;;;4879981;29;20060;-63
2023/04/15 02:09:31;;;;;;;8.20;3.70;;;;;;;;;;4895452;29;20060;-64
2023/04/15 02:12:01;;;;;;;7.55;3.75;;;;;;;;;;4895803;29;20080;-63
2023/04/15 02:14:31;;;;;;;9.02;3.63;;;;;;;;;;4857828;29;20049;-63
2023/04/15 02:17:06;;;;;;;7.72;3.90;;;;;;;;;;4867154;29;20064;-63
2023/04/15 02:19:36;;;;;;;9.60;4.05;;;;;;;;;;4885833;29;20568;-63
2023/04/15 02:22:08;;;;;;;;;;;;;;;;;;4914524;29;20059;-64
2023/04/15 02:24:38;;;;;;;11.27;3.72;;;;;;;;;;4914009;29;19923;-63
2023/04/15 02:27:09;;;;;;;12.63;3.60;;;;;;;;;;4914336;29;20067;-63
2023/04/15 02:29:39;;;;;;;8.13;3.55;;;;;;;;;;4882738;29;20208;-63
2023/04/15 02:32:10;;;;;;;6.10;3.38;;;;;;;;;;4894944;29;20536;-63
2023/04/15 02:34:41;;;;;;;7.20;4.15;;;;;;;;;;4885151;29;20406;-65
2023/04/15 02:37:12;;;;;;;10.15;4.38;;;;;;;;;;4866725;29;20080;-63
2023/04/15 02:39:43;;;;;;;9.70;3.95;;;;;;;;;;4872460;29;20066;-64
2023/04/15 02:42:13;;;;;;;9.27;4.40;;;;;;;;;;4857704;29;20391;-63
2023/04/15 02:44:43;;;;;;;7.22;3.63;;;;;;;;;;4875963;29;20045;-64
2023/04/15 02:47:14;;;;;;;7.07;4.00;;;;;;;;;;4876155;29;20503;-64
2023/04/15 02:49:44;;;;;;;13.05;3.75;;;;;;;;;;4857012;29;20046;-64
2023/04/15 02:52:15;;;;;;;5.80;3.33;;;;;;;;;;4885677;29;20071;-64
2023/04/15 02:54:45;;;;;;;8.85;3.75;;;;;;;;;;4856395;29;20057;-63
2023/04/15 02:57:15;;;;;;;8.57;4.55;;;;;;;;;;4845327;29;20183;-64
2023/04/15 02:59:45;;;;;;;9.10;4.22;;;;;;;;;;4827694;29;20058;-64
2023/04/15 03:02:15;;;;;;;11.02;4.43;;;;;;;;;;4838948;29;20046;-63
2023/04/15 03:04:46;;;;;;;11.15;4.28;;;;;;;;;;4856859;29;20166;-64
2023/04/15 03:07:17;;;;;;;6.88;3.88;;;;;;;;;;4838755;29;20064;-63
2023/04/15 03:09:48;;;;;;;6.32;3.58;;;;;;;;;;4838773;29;20104;-64
2023/04/15 03:12:18;;;;;;;9.20;3.88;;;;;;;;;;4838927;29;20527;-64
2023/04/15 03:14:48;;;;;;;8.80;4.40;;;;;;;;;;4841074;29;20053;-63
2023/04/15 03:17:22;;;;;;;10.73;4.10;;;;;;;;;;4856690;29;20054;-64
2023/04/15 03:19:53;;;;;;;6.07;3.58;;;;;;;;;;4838558;29;20554;-63
2023/04/15 03:22:25;;;;;;;8.55;3.95;;;;;;;;;;4772328;29;20047;-64
2023/04/15 03:24:55;;;;;;;8.13;4.03;;;;;;;;;;4791730;29;20068;-64
2023/04/15 03:27:25;;;;;;;5.85;3.65;;;;;;;;;;4802330;29;20059;-64
2023/04/15 03:29:59;;;;;;;8.90;3.85;;;;;;;;;;4801961;29;20132;-64
2023/04/15 03:32:33;;;;;;;8.23;3.83;;;;;;;;;;4820096;29;20054;-64
2023/04/15 03:35:03;;;;;;;10.73;4.03;;;;;;;;;;4801990;29;20067;-64
2023/04/15 03:37:34;;;;;;;7.13;4.10;;;;;;;;;;4801866;29;20062;-63
2023/04/15 03:40:05;;;;;;;10.52;3.70;;;;;;;;;;4791760;29;20433;-65
2023/04/15 03:42:35;;;;;;;8.10;3.67;;;;;;;;;;4793948;29;20074;-64
2023/04/15 03:45:06;;;;;;;8.20;3.72;;;;;;;;;;4830138;29;20054;-63
2023/04/15 03:47:36;;;;;;;10.65;3.97;;;;;;;;;;4838364;29;20066;-63
2023/04/15 03:50:07;;;;;;;14.23;5.07;;;;;;;;;;4838339;29;20074;-64
2023/04/15 03:52:37;;;;;;;10.02;5.10;;;;;;;;;;4818360;29;20104;-64
2023/04/15 03:55:08;;;;;;;7.05;3.85;;;;;;;;;;4866513;29;20052;-64
2023/04/15 03:57:38;;;;;;;7.50;3.83;;;;;;;;;;4844660;29;20076;-63
2023/04/15 04:00:09;;;;;;;8.55;4.15;;;;;;;;;;4884969;29;20056;-64
2023/04/15 04:02:39;;;;;;;8.65;3.53;;;;;;;;;;4913750;29;20468;-64
2023/04/15 04:05:11;;;;;;;8.60;3.60;;;;;;;;;;4872822;29;20539;-64
2023/04/15 04:07:41;;;;;;;5.85;3.55;;;;;;;;;;4935066;29;20582;-65
2023/04/15 04:10:11;;;;;;;7.22;3.83;;;;;;;;;;4944202;29;20510;-64
2023/04/15 04:12:41;;;;;;;7.95;3.72;;;;;;;;;;4915337;29;20094;-64
2023/04/15 04:15:11;;;;;;;8.48;4.18;;;;;;;;;;4949989;29;20055;-64
2023/04/15 04:17:41;;;;;;;6.95;3.60;;;;;;;;;;4918534;29;20515;-64
2023/04/15 04:20:11;;;;;;;7.78;3.45;;;;;;;;;;4950511;29;20055;-64
2023/04/15 04:22:41;;;;;;;8.57;3.67;;;;;;;;;;4980137;28;20053;-64
2023/04/15 04:25:11;;;;;;;10.88;4.68;;;;;;;;;;5011480;28;20046;-65
2023/04/15 04:27:41;;;;;;;8.63;4.18;;;;;;;;;;5011200;28;20053;-64
2023/04/15 04:30:12;;;;;;;9.93;3.90;;;;;;;;;;4976897;28;20069;-64
2023/04/15 04:32:42;;;;;;;6.43;3.75;;;;;;;;;;5011059;28;20516;-64
2023/04/15 04:35:12;;;;;;;7.78;4.13;;;;;;;;;;5011462;28;20061;-64
2023/04/15 04:37:42;;;;;;;9.52;4.32;;;;;;;;;;5010960;28;20065;-64
2023/04/15 04:40:12;;;;;;;7.78;4.00;;;;;;;;;;5011244;28;20108;-64
2023/04/15 04:42:42;;;;;;;8.73;4.07;;;;;;;;;;4992889;28;20053;-64
2023/04/15 04:45:14;;;;;;;7.47;3.70;;;;;;;;;;5010981;28;20037;-64
2023/04/15 04:47:48;;;;;;;9.93;4.35;;;;;;;;;;5009691;28;20052;-64
2023/04/15 04:50:18;;;;;;;10.77;4.80;;;;;;;;;;5010041;28;20061;-64
2023/04/15 04:52:48;;;;;;;9.48;4.05;;;;;;;;;;4994621;28;20049;-65
2023/04/15 04:55:18;;;;;;;9.90;3.90;;;;;;;;;;5015022;28;20050;-64
2023/04/15 04:57:48;;;;;;;6.55;3.72;;;;;;;;;;5002977;28;20047;-65
2023/04/15 05:00:19;;;;;;;7.63;4.18;;;;;;;;;;4995562;28;20047;-64
2023/04/15 05:02:49;;;;;;;8.52;3.83;;;;;;;;;;4960696;28;20062;-64
2023/04/15 05:05:19;;;;;;;8.25;4.07;;;;;;;;;;4897855;28;20062;-64
2023/04/15 05:07:50;;;;;;;9.05;4.32;;;;;;;;;;4995000;28;20386;-64
2023/04/15 05:10:20;;;;;;;7.55;4.20;;;;;;;;;;4976599;28;20050;-64
2023/04/15 05:12:51;;;;;;;7.90;4.15;;;;;;;;;;4944532;28;20054;-64
2023/04/15 05:15:21;;;;;;;10.13;4.65;;;;;;;;;;4960743;28;20422;-64
2023/04/15 05:17:52;;;;;;;9.20;4.65;;;;;;;;;;4994858;28;20495;-65
2023/04/15 05:20:22;;;;;;;10.38;4.60;;;;;;;;;;4994973;28;20053;-64
2023/04/15 05:22:52;;;;;;;7.60;4.00;;;;;;;;;;4995009;28;20042;-65
2023/04/15 05:25:22;;;;;;;11.23;4.63;;;;;;;;;;4944550;28;20047;-64
2023/04/15 05:27:55;;;;;;;8.93;3.92;;;;;;;;;;4946036;28;20418;-64
2023/04/15 05:30:25;;;;;;;7.18;4.22;;;;;;;;;;4972762;28;20454;-64
2023/04/15 05:32:55;;;;;;;9.85;3.90;;;;;;;;;;4972698;28;20063;-65
2023/04/15 05:35:26;;;;;;;10.07;4.07;;;;;;;;;;4956737;28;20407;-64
2023/04/15 05:37:55;;;;;;;7.63;4.38;;;;;;;;;;4972576;28;20054;-64
2023/04/15 05:40:26;;;;;;;7.95;4.05;;;;;;;;;;4972467;28;20050;-64
2023/04/15 05:42:56;;;;;;;10.48;4.90;;;;;;;;;;4973066;28;20069;-65
2023/04/15 05:45:26;;;;;;;8.95;4.72;;;;;;;;;;4972565;28;20062;-64
2023/04/15 05:47:56;;;;;;;8.15;4.78;;;;;;;;;;4972358;28;20050;-64
2023/04/15 05:50:26;;;;;;;13.20;4.90;;;;;;;;;;4940322;28;20055;-64
2023/04/15 05:52:56;;;;;;;14.38;5.07;;;;;;;;;;4940314;28;20062;-64
2023/04/15 05:55:26;;;;;;;13.32;4.70;;;;;;;;;;4956701;28;20050;-64
2023/04/15 05:57:56;;;;;;;13.50;5.75;;;;;;;;;;4984809;28;20058;-64
2023/04/15 06:00:26;;;;;;;15.98;6.05;;;;;;;;;;4991692;28;20042;-62
2023/04/15 06:02:57;;;;;;;12.70;5.80;;;;;;;;;;4991405;28;20454;-63
2023/04/15 06:05:28;;;;;;;11.65;6.20;;;;;;;;;;4991285;28;20058;-63
2023/04/15 06:07:59;;;;;;;11.80;5.38;;;;;;;;;;4952741;29;20047;-64
2023/04/15 06:10:29;;;;;;;11.60;5.50;;;;;;;;;;4875023;29;20055;-62
2023/04/15 06:12:59;;;;;;;14.35;5.93;;;;;;;;;;4952795;29;20055;-63
2023/04/15 06:15:30;;;;;;;16.30;6.00;;;;;;;;;;4953057;29;20058;-63
2023/04/15 06:18:00;;;;;;;14.57;5.88;;;;;;;;;;4952881;29;20055;-63
2023/04/15 06:20:30;;;;;;;13.65;5.22;;;;;;;;;;4952437;29;20195;-63
2023/04/15 06:23:00;;;;;;;18.45;5.75;;;;;;;;;;4952588;29;20056;-64
2023/04/15 06:25:30;;;;;;;18.77;6.32;;;;;;;;;;4952429;29;20066;-63
2023/04/15 06:28:00;;;;;;;13.02;6.03;;;;;;;;;;4969550;28;20084;-63
2023/04/15 06:30:30;;;;;;;19.48;6.93;;;;;;;;;;4924843;28;20423;-64
2023/04/15 06:33:04;;;;;;;19.35;6.55;;;;;;;;;;4923496;28;20054;-63
2023/04/15 06:35:34;;;;;;;17.33;6.47;;;;;;;;;;4971558;28;20431;-63
2023/04/15 06:38:04;;;;;;;14.05;5.93;;;;;;;;;;4923746;28;20530;-64
2023/04/15 06:40:34;;;;;;;14.48;6.20;;;;;;;;;;4971574;28;20095;-64
2023/04/15 06:43:04;;;;;;;15.43;6.00;;;;;;;;;;4971771;28;20089;-63
2023/04/15 06:45:35;;;;;;;15.63;6.93;;;;;;;;;;4981005;28;20058;-64
2023/04/15 06:48:05;;;;;;;19.25;6.57;;;;;;;;;;4991005;28;20050;-64
2023/04/15 06:50:36;;;;;;;18.02;6.85;;;;;;;;;;4990905;28;20053;-64
2023/04/15 06:53:06;;;;;;;19.40;7.68;;;;;;;;;;4974402;28;20533;-64
2023/04/15 06:55:36;;;;;;;18.40;7.13;;;;;;;;;;4974554;28;20055;-64
2023/04/15 06:58:06;;;;;;;21.67;7.80;;;;;;;;;;4957919;28;20054;-66
2023/04/15 07:00:38;;;;;;;19.13;7.15;;;;;;;;;;4990369;28;20046;-64
2023/04/15 07:03:09;;;;;;;24.40;7.18;;;;;;;;;;4958349;28;20061;-64
2023/04/15 07:05:40;;;;;;;21.75;9.35;;;;;;;;;;5002085;28;20069;-64
2023/04/15 07:08:11;;;;;;;32.47;8.30;;;;;;;;;;4990400;28;20054;-64
2023/04/15 07:10:41;;;;;;;20.63;7.82;;;;;;;;;;4990279;28;20058;-64
2023/04/15 07:13:11;;;;;;;21.67;7.97;;;;;;;;;;4990384;28;20073;-64
2023/04/15 07:15:41;;;;;;;20.38;8.02;;;;;;;;;;4942048;28;20062;-63
2023/04/15 07:18:11;;;;;;;24.23;9.15;;;;;;;;;;4990290;28;20065;-64
2023/04/15 07:20:41;;;;;;;23.23;8.73;;;;;;;;;;4990043;28;20411;-64
2023/04/15 07:23:11;;;;;;;24.23;9.15;;;;;;;;;;4990245;28;20061;-64
2023/04/15 07:25:41;;;;;;;29.77;8.90;;;;;;;;;;4990096;28;20461;-63
2023/04/15 07:28:11;;;;;;;27.05;9.45;;;;;;;;;;4989936;28;20537;-64
2023/04/15 07:30:41;;;;;;;22.55;9.07;;;;;;;;;;4990128;28;20046;-64
2023/04/15 07:33:11;;;;;;;27.38;9.05;;;;;;;;;;4941753;28;20431;-64
2023/04/15 07:35:41;;;;;;;27.70;9.02;;;;;;;;;;4990046;28;20081;-65
2023/04/15 07:38:14;;;;;;;29.88;9.95;;;;;;;;;;4958145;28;20066;-63
2023/04/15 07:40:45;;;;;;;23.67;9.35;;;;;;;;;;4993617;28;20050;-63
2023/04/15 07:43:15;;;;;;;20.73;8.60;;;;;;;;;;4961258;28;20062;-64
2023/04/15 07:45:45;;;;;;;30.83;9.02;;;;;;;;;;5011986;28;20057;-64
2023/04/15 07:48:15;;;;;;;27.08;7.93;;;;;;;;;;5011793;28;20053;-64
2023/04/15 07:50:45;;;;;;;22.13;8.65;;;;;;;;;;5011695;28;20536;-64
2023/04/15 07:53:15;;;;;;;38.33;7.75;;;;;;;;;;5011963;28;20054;-64
2023/04/15 07:55:45;;;;;;;26.42;9.15;;;;;;;;;;5011678;28;20402;-64
2023/04/15 07:58:16;;;;;;;27.80;8.60;;;;;;;;;;5011281;28;20061;-63
2023/04/15 08:00:46;;;;;;;21.42;7.65;;;;;;;;;;5011724;28;20061;-63
2023/04/15 08:03:16;;;;;;;21.98;7.07;;;;;;;;;;5009300;28;20533;-64
2023/04/15 08:05:46;;;;;;;18.35;7.32;;;;;;;;;;5011634;28;20067;-64
2023/04/15 08:08:16;;;;;;;18.08;6.65;;;;;;;;;;4969435;28;20050;-64
2023/04/15 08:10:46;;;;;;;19.92;6.50;;;;;;;;;;4969911;28;20069;-64
2023/04/15 08:13:20;;;;;;;19.20;6.55;;;;;;;;;;4916506;29;20063;-64
2023/04/15 08:16:20;;;;;;;18.88;6.10;;;;;;;;;;4884632;29;20459;-63
2023/04/15 08:18:52;;;;;;;28.27;6.20;;;;;;;;;;4931048;29;20043;-63
2023/04/15 08:21:22;;;;;;;23.67;6.20;;;;;;;;;;4931577;29;20048;-64
2023/04/15 08:23:53;;;;;;;15.48;6.53;;;;;;;;;;4931645;29;20114;-64
2023/04/15 08:26:23;;;;;;;15.07;6.13;;;;;;;;;;4899224;29;20550;-64
2023/04/15 08:28:53;;;;;;;18.20;6.80;;;;;;;;;;4915418;29;20472;-64
2023/04/15 08:31:26;;;;;;;20.42;6.68;;;;;;;;;;4931632;29;20202;-64
2023/04/15 08:33:58;;;;;;;19.17;6.25;;;;;;;;;;4931512;29;20067;-62
2023/04/15 08:36:28;;;;;;;16.00;6.70;;;;;;;;;;4931454;29;20055;-62
2023/04/15 08:39:00;;;;;;;20.10;7.07;;;;;;;;;;4931202;29;20066;-62
2023/04/15 08:41:45;;;;;;;26.15;7.07;;;;;;;;;;4931371;29;20407;-62
2023/04/15 08:44:16;;;;;;;29.23;5.50;;;;;;;;;;4899623;29;20058;-67
2023/04/15 08:46:47;;;;;;;17.13;6.65;;;;;;;;;;4915632;29;20063;-62
2023/04/15 08:49:21;;;;;;;15.52;6.13;;;;;;;;;;4950309;29;20063;-63
2023/04/15 08:51:52;;;;;;;16.17;6.03;;;;;;;;;;4966925;28;20061;-64
2023/04/15 08:54:22;;;;;;;20.13;6.30;;;;;;;;;;4953428;28;20062;-62
2023/04/15 08:56:53;;;;;;;14.80;5.90;;;;;;;;;;4947266;28;20651;-62
2023/04/15 08:59:23;;;;;;;13.25;5.80;;;;;;;;;;4960080;28;20138;-63
2023/04/15 09:01:54;;;;;;;14.70;6.25;;;;;;;;;;5019793;28;20052;-63
2023/04/15 09:04:24;;;;;;;13.63;5.85;;;;;;;;;;5029877;28;20045;-63
2023/04/15 09:06:56;;;;;;;12.65;5.65;;;;;;;;;;5030354;28;20056;-64
2023/04/15 09:09:27;;;;;;;13.02;5.80;;;;;;;;;;5030308;28;20041;-63
2023/04/15 09:11:57;;;;;;;12.50;6.35;;;;;;;;;;5030186;28;20044;-63
2023/04/15 09:14:31;;;;;;;12.73;6.07;;;;;;;;;;5030294;28;20042;-62
2023/04/15 09:17:04;;;;;;;11.25;5.35;;;;;;;;;;5004110;28;20502;-62
2023/04/15 09:19:34;;;;;;;12.60;6.10;;;;;;;;;;4975664;28;20557;-64
2023/04/15 09:22:05;;;;;;;12.02;6.07;;;;;;;;;;5008478;28;20054;-63
2023/04/15 09:24:38;;;;;;;10.60;5.75;;;;;;;;;;5008444;28;20116;-62
2023/04/15 09:27:08;;;;;;;13.73;5.75;;;;;;;;;;5008443;28;20446;-62
2023/04/15 09:29:40;;;;;;;13.77;5.88;;;;;;;;;;5008344;28;20153;-62
2023/04/15 09:32:14;;;;;;;17.98;5.30;;;;;;;;;;4992302;28;20077;-62
2023/04/15 09:34:44;;;;;;;14.38;5.22;;;;;;;;;;4976089;28;20077;-62
2023/04/15 09:37:17;;;;;;;11.32;5.18;;;;;;;;;;4975981;28;20410;-62
2023/04/15 09:39:59;;;;;;;13.23;5.57;;;;;;;;;;4944434;28;20043;-62
2023/04/15 09:42:29;;;;;;;12.13;5.88;;;;;;;;;;4956310;28;20062;-62
2023/04/15 09:45:11;;;;;;;16.98;6.18;;;;;;;;;;4956875;28;20507;-63
2023/04/15 09:47:41;;;;;;;27.33;5.80;;;;;;;;;;4972455;28;20066;-62
2023/04/15 09:50:11;;;;;;;12.07;6.28;;;;;;;;;;4924633;28;20093;-62
2023/04/15 09:52:42;;;;;;;14.63;5.50;;;;;;;;;;4956610;28;20058;-62
2023/04/15 09:55:14;;;;;;;10.15;5.70;;;;;;;;;;4970184;28;20573;-63
2023/04/15 09:57:46;;;;;;;11.43;5.80;;;;;;;;;;4991395;28;20058;-62
2023/04/15 10:00:16;;;;;;;11.40;5.28;;;;;;;;;;4943443;28;20058;-62
2023/04/15 10:02:48;;;;;;;12.65;5.07;;;;;;;;;;4959625;28;20061;-64
2023/04/15 10:05:19;;;;;;;9.27;4.70;;;;;;;;;;4959235;28;20058;-62
2023/04/15 10:07:49;;;;;;;10.35;5.18;;;;;;;;;;4943181;28;20047;-62
2023/04/15 10:10:20;;;;;;;10.23;4.70;;;;;;;;;;4964348;28;20085;-62
2023/04/15 10:12:51;;;;;;;14.85;5.25;;;;;;;;;;4924193;28;20758;-62
2023/04/15 10:15:22;;;;;;;9.27;5.05;;;;;;;;;;4972105;28;20061;-62
2023/04/15 10:17:54;;;;;;;14.45;4.93;;;;;;;;;;4983234;28;20394;-62
2023/04/15 10:20:25;;;;;;;14.52;4.63;;;;;;;;;;4911442;28;20053;-62
2023/04/15 10:22:56;;;;;;;17.08;5.68;;;;;;;;;;4975262;28;21179;-63
2023/04/15 10:25:27;;;;;;;12.43;5.00;;;;;;;;;;4959099;28;20106;-62
2023/04/15 10:27:58;;;;;;;9.05;4.63;;;;;;;;;;4928260;28;20046;-63
2023/04/15 10:30:30;;;;;;;7.78;4.43;;;;;;;;;;4991268;28;20058;-62
2023/04/15 10:33:02;;;;;;;8.25;4.75;;;;;;;;;;4990820;28;20704;-62
2023/04/15 10:35:35;;;;;;;;;;;;;;;;;;4991479;28;20060;-63
2023/04/15 10:38:32;;;;;;;8.13;4.35;;;;;;;;;;4974808;28;19922;-63
2023/04/15 10:41:20;;;;;;;7.82;4.50;;;;;;;;;;4991152;28;20050;-65
2023/04/15 10:44:00;;;;;;;8.07;4.78;;;;;;;;;;4936003;29;20067;-62
2023/04/15 10:46:38;;;;;;;9.60;5.18;;;;;;;;;;4936461;29;20086;-64
2023/04/15 10:49:12;;;;;;;12.10;6.43;;;;;;;;;;4954825;28;20047;-63
2023/04/15 10:51:50;;;;;;;12.93;6.97;;;;;;;;;;4951915;28;20058;-63
2023/04/15 10:54:26;;;;;;;13.55;6.65;;;;;;;;;;4990707;28;20043;-62
2023/04/15 10:57:05;;;;;;;12.00;7.10;;;;;;;;;;4989490;28;20082;-63
2023/04/15 10:59:59;;;;;;;10.75;5.57;;;;;;;;;;4990102;28;20069;-66
2023/04/15 11:02:55;;;;;;;10.95;6.05;;;;;;;;;;5006879;28;20053;-63
2023/04/15 11:05:40;;;;;;;13.15;6.57;;;;;;;;;;4977514;28;20514;-64
2023/04/15 11:08:12;;;;;;;11.13;6.72;;;;;;;;;;4960799;28;20081;-63
2023/04/15 11:10:43;;;;;;;11.30;6.03;;;;;;;;;;5010126;28;20553;-63
2023/04/15 11:13:20;;;;;;;10.13;5.90;;;;;;;;;;5010061;28;20494;-63
2023/04/15 11:15:54;;;;;;;11.93;6.53;;;;;;;;;;5010106;28;20073;-63
2023/04/15 11:18:29;;;;;;;13.57;6.28;;;;;;;;;;4993577;28;20569;-65
2023/04/15 11:21:02;;;;;;;10.57;5.60;;;;;;;;;;5016415;28;20054;-63
2023/04/15 11:23:48;;;;;;;8.98;5.13;;;;;;;;;;4964362;28;20049;-64
2023/04/15 11:26:18;;;;;;;10.43;5.90;;;;;;;;;;5029008;28;20068;-64
2023/04/15 11:28:48;;;;;;;10.07;5.68;;;;;;;;;;4977702;28;20072;-64
2023/04/15 11:31:18;;;;;;;9.02;5.13;;;;;;;;;;5023524;28;20048;-64
2023/04/15 11:33:57;;;;;;;8.88;5.07;;;;;;;;;;5029037;28;20398;-63
2023/04/15 11:36:30;;;;;;;7.65;4.40;;;;;;;;;;5028603;28;20043;-63
2023/04/15 11:39:00;;;;;;;7.35;4.38;;;;;;;;;;5030823;28;20041;-64
2023/04/15 11:41:30;;;;;;;7.57;4.68;;;;;;;;;;5030986;28;20052;-65
2023/04/15 11:44:00;;;;;;;5.93;2.90;;;;;;;;;;4948801;28;20401;-64
2023/04/15 11:46:31;;;;;;;3.17;1.75;;;;;;;;;;5025416;28;20046;-65
2023/04/15 11:49:01;;;;;;;4.50;2.40;;;;;;;;;;4977530;28;20053;-64
2023/04/15 11:51:35;;;;;;;3.28;1.80;;;;;;;;;;5006512;28;20037;-63
2023/04/15 11:54:05;;;;;;;3.40;1.50;;;;;;;;;;5032110;28;20033;-63
2023/04/15 11:56:35;;;;;;;1.98;1.25;;;;;;;;;;5014063;28;20509;-64
2023/04/15 11:59:05;;;;;;;1.83;1.00;;;;;;;;;;4964698;28;20406;-64
2023/04/15 12:01:42;;;;;;;1.80;0.90;;;;;;;;;;4994077;28;20037;-66
2023/04/15 12:04:16;;;;;;;3.72;0.90;;;;;;;;;;4992458;28;20061;-63
2023/04/15 12:06:50;;;;;;;2.33;1.00;;;;;;;;;;5009506;28;20041;-64
2023/04/15 12:09:20;;;;;;;1.65;0.88;;;;;;;;;;5009157;28;20482;-64
2023/04/15 12:11:57;;;;;;;2.00;1.10;;;;;;;;;;4976820;28;20046;-64
2023/04/15 12:14:32;;;;;;;1.80;0.80;;;;;;;;;;5011327;28;20046;-64
2023/04/15 12:17:07;;;;;;;1.58;0.85;;;;;;;;;;5010863;28;20034;-64
2023/04/15 12:19:40;;;;;;;1.30;0.70;;;;;;;;;;5008676;28;20044;-64
2023/04/15 12:22:15;;;;;;;2.08;1.10;;;;;;;;;;5010918;28;20042;-64
2023/04/15 12:24:47;;;;;;;2.08;1.00;;;;;;;;;;4993766;28;20362;-64
2023/04/15 12:27:17;;;;;;;3.30;0.57;;;;;;;;;;4940403;28;20042;-62
2023/04/15 12:29:47;;;;;;;1.23;0.70;;;;;;;;;;4964814;28;20558;-63
2023/04/15 12:32:21;;;;;;;1.25;0.70;;;;;;;;;;4989220;28;20086;-63
2023/04/15 12:34:55;;;;;;;1.95;0.80;;;;;;;;;;4989114;28;20086;-63
2023/04/15 12:37:25;;;;;;;2.38;0.85;;;;;;;;;;4988937;28;20054;-64
2023/04/15 12:39:56;;;;;;;1.40;0.82;;;;;;;;;;4989087;28;20065;-63
2023/04/15 12:42:26;;;;;;;1.30;0.70;;;;;;;;;;4968459;28;20143;-64
2023/04/15 12:44:56;;;;;;;1.50;0.80;;;;;;;;;;4977740;28;20049;-63
2023/04/15 12:47:26;;;;;;;1.90;1.00;;;;;;;;;;4956652;28;21029;-63
2023/04/15 12:49:56;;;;;;;1.90;0.70;;;;;;;;;;4953904;28;20058;-63
2023/04/15 12:52:26;;;;;;;1.60;0.90;;;;;;;;;;4956494;28;20058;-64
2023/04/15 12:54:56;;;;;;;2.30;0.77;;;;;;;;;;4970170;28;20066;-64
2023/04/15 12:57:26;;;;;;;1.35;0.80;;;;;;;;;;4965474;28;20054;-64
2023/04/15 12:59:56;;;;;;;1.20;0.80;;;;;;;;;;4988118;28;20043;-64
2023/04/15 13:02:27;;;;;;;1.83;0.90;;;;;;;;;;4988905;28;20070;-63
2023/04/15 13:04:58;;;;;;;4.50;0.95;;;;;;;;;;4988773;28;20081;-64
2023/04/15 13:07:29;;;;;;;1.58;0.88;;;;;;;;;;4990524;28;20057;-64
2023/04/15 13:10:00;;;;;;;3.63;1.30;;;;;;;;;;5007711;28;20046;-63
2023/04/15 13:12:30;;;;;;;3.65;2.25;;;;;;;;;;5007601;28;20060;-63
2023/04/15 13:15:00;;;;;;;3.15;1.02;;;;;;;;;;4963272;28;20062;-64
2023/04/15 13:17:33;;;;;;;1.38;1.00;;;;;;;;;;5012098;28;20093;-63
2023/04/15 13:20:03;;;;;;;4.00;1.70;;;;;;;;;;4953055;29;20054;-64
2023/04/15 13:22:33;;;;;;;3.85;1.23;;;;;;;;;;4925781;28;20054;-64
2023/04/15 13:25:03;;;;;;;2.33;1.10;;;;;;;;;;4939700;28;20043;-64
2023/04/15 13:27:33;;;;;;;3.92;1.63;;;;;;;;;;4972860;28;20043;-63
2023/04/15 13:30:05;;;;;;;1.65;0.80;;;;;;;;;;4956960;28;20055;-63
2023/04/15 13:32:36;;;;;;;4.00;1.00;;;;;;;;;;4972717;28;20066;-64
2023/04/15 13:35:06;;;;;;;3.95;1.00;;;;;;;;;;4908717;28;20047;-63
2023/04/15 13:37:38;;;;;;;2.28;1.05;;;;;;;;;;4905400;29;20053;-64
2023/04/15 13:40:08;;;;;;;1.08;0.65;;;;;;;;;;4934867;29;20412;-66
2023/04/15 13:42:39;;;;;;;2.10;0.68;;;;;;;;;;4897042;29;20060;-64
2023/04/15 13:45:10;;;;;;;2.15;0.93;;;;;;;;;;4914809;29;20060;-64
2023/04/15 13:47:40;;;;;;;1.80;0.82;;;;;;;;;;4902058;29;20079;-64
2023/04/15 13:50:10;;;;;;;2.85;1.10;;;;;;;;;;4896110;29;20052;-64
2023/04/15 13:52:40;;;;;;;1.92;0.70;;;;;;;;;;4880968;29;20057;-64
2023/04/15 13:55:10;;;;;;;2.17;0.90;;;;;;;;;;4858471;29;20062;-63
2023/04/15 13:57:51;;;;;;;3.35;0.90;;;;;;;;;;4889912;29;20064;-64
2023/04/15 14:00:21;;;;;;;1.80;0.85;;;;;;;;;;4899265;29;20087;-64
2023/04/15 14:02:51;;;;;;;2.60;0.82;;;;;;;;;;4914702;29;20048;-64
2023/04/15 14:05:21;;;;;;;8.35;1.02;;;;;;;;;;4914634;29;20071;-65
2023/04/15 14:07:51;;;;;;;3.03;0.80;;;;;;;;;;4867777;29;20063;-64
2023/04/15 14:10:21;;;;;;;1.88;0.80;;;;;;;;;;4914723;29;20070;-64
2023/04/15 14:12:51;;;;;;;3.60;0.90;;;;;;;;;;4914764;29;20412;-64
2023/04/15 14:15:21;;;;;;;1.30;1.00;;;;;;;;;;4918474;29;20463;-64
2023/04/15 14:17:51;;;;;;;1.60;0.93;;;;;;;;;;4933949;29;20056;-64
2023/04/15 14:20:21;;;;;;;2.08;0.95;;;;;;;;;;4963092;28;20082;-64
2023/04/15 14:22:51;;;;;;;1.48;0.52;;;;;;;;;;4991008;28;20074;-64
2023/04/15 14:25:21;;;;;;;1.83;0.65;;;;;;;;;;4991071;28;20131;-64
2023/04/15 14:28:03;;;;;;;4.53;0.80;;;;;;;;;;4943151;28;20053;-64
2023/04/15 14:30:35;;;;;;;1.00;0.50;;;;;;;;;;4991380;28;20046;-65
2023/04/15 14:33:05;;;;;;;1.00;0.70;;;;;;;;;;5017406;28;20061;-64
2023/04/15 14:35:37;;;;;;;1.13;0.63;;;;;;;;;;5032956;28;20041;-64
2023/04/15 14:38:09;;;;;;;0.85;0.65;;;;;;;;;;5014162;28;20052;-64
2023/04/15 14:40:41;;;;;;;0.70;0.40;;;;;;;;;;4935939;28;20057;-64
2023/04/15 14:43:11;;;;;;;1.88;0.60;;;;;;;;;;5032331;28;20494;-64
2023/04/15 14:45:41;;;;;;;0.98;0.40;;;;;;;;;;5032466;28;20060;-64
2023/04/15 14:48:12;;;;;;;;;;;;;;;;;;5033118;28;20398;-65
2023/04/15 14:50:42;;;;;;;0.57;0.40;;;;;;;;;;5009930;28;19921;-65
2023/04/15 14:53:12;;;;;;;3.22;0.60;;;;;;;;;;5010513;28;20061;-64
2023/04/15 14:55:43;;;;;;;1.67;0.50;;;;;;;;;;4978094;28;20470;-64
2023/04/15 14:58:13;;;;;;;1.42;0.45;;;;;;;;;;5010118;28;20058;-64
2023/04/15 15:00:44;;;;;;;;;;;;;;;;;;4963877;28;20054;-63
2023/04/15 15:03:14;;;;;;;1.15;0.55;;;;;;;;;;5010167;28;19953;-64